Meteorología y climatología de Navarra
Datos de la estación - Meteo Navarra

Estación de Doneztebe-Santesteban GN

Altitud 125 m.


Datos desde el 15/01/2020 hasta el 16/01/2020 en horario solar
Los datos son PROVISIONALES

Anterior Página 1 de 1 Siguiente Descargar: Formato para Excel 2000 o superior   Formato csv   Formato para OpenOffice Calc
Fecha Temperatura Humedad relativa Radiación global Insolación Precipitación Vel. viento 10 m Vel. viento 10 m Dir. viento 10 m
ºC % W/m² s l/m² m/s km/h º
15/01/2020 0:00 9.5 54 0.0 0 0.0 2.0 7.2 309
15/01/2020 0:10 9.8 52 0.0 0 0.0 2.8 10.0 307
15/01/2020 0:20 10.1 52 0.0 0 0.0 1.9 6.9 303
15/01/2020 0:30 9.7 53 0.0 0 0.0 2.7 9.8 306
15/01/2020 0:40 9.7 53 0.0 0 0.0 2.7 9.8 308
15/01/2020 0:50 9.7 53 0.0 0 0.0 1.6 5.6 292
15/01/2020 1:00 9.5 54 0.0 0 0.0 1.5 5.2 280
15/01/2020 1:10 9.7 52 0.0 0 0.0 1.8 6.6 262
15/01/2020 1:20 10.0 51 0.0 0 0.0 1.6 5.8 272
15/01/2020 1:30 9.9 51 0.0 0 0.0 2.2 7.8 254
15/01/2020 1:40 10.2 50 0.0 0 0.0 2.3 8.1 248
15/01/2020 1:50 10.1 50 0.0 0 0.0 2.5 9.0 265
15/01/2020 2:00 9.9 51 0.0 0 0.0 1.5 5.2 263
15/01/2020 2:10 9.7 52 0.0 0 0.0 1.7 6.1 239
15/01/2020 2:20 10.0 51 0.0 0 0.0 1.8 6.4 244
15/01/2020 2:30 9.8 52 0.0 0 0.0 1.8 6.4 221
15/01/2020 2:40 9.9 51 0.0 0 0.0 2.6 9.2 239
15/01/2020 2:50 9.9 52 0.0 0 0.0 2.2 7.8 266
15/01/2020 3:00 9.9 52 0.0 0 0.0 1.4 5.1 305
15/01/2020 3:10 10.0 52 0.0 0 0.0 3.0 10.7 295
15/01/2020 3:20 9.9 52 0.0 0 0.0 2.6 9.2 290
15/01/2020 3:30 9.9 52 0.0 0 0.0 3.4 12.1 254
15/01/2020 3:40 9.5 54 0.0 0 0.0 2.9 10.4 323
15/01/2020 3:50 9.5 54 0.0 0 0.0 2.4 8.7 318
15/01/2020 4:00 9.6 54 0.0 0 0.0 3.2 11.6 308
15/01/2020 4:10 9.8 53 0.0 0 0.0 3.9 14.0 308
15/01/2020 4:20 9.8 53 0.0 0 0.0 3.9 14.0 315
15/01/2020 4:30 9.8 54 0.0 0 0.0 6.5 23.2 304
15/01/2020 4:40 9.8 53 0.0 0 0.0 6.3 22.7 302
15/01/2020 4:50 9.7 54 0.0 0 0.0 6.3 22.8 305
15/01/2020 5:00 9.6 54 0.0 0 0.0 6.6 23.7 310
15/01/2020 5:10 9.7 54 0.0 0 0.0 7.0 25.0 311
15/01/2020 5:20 9.8 54 0.0 0 0.0 3.8 13.5 299
15/01/2020 5:30 9.7 55 0.0 0 0.0 3.0 10.8 291
15/01/2020 5:40 9.7 54 0.0 0 0.0 4.8 17.4 303
15/01/2020 5:50 9.8 54 0.0 0 0.0 4.9 17.6 309
15/01/2020 6:00 10.0 54 0.0 0 0.0 5.2 18.5 307
15/01/2020 6:10 10.2 53 0.0 0 0.0 4.7 16.7 304
15/01/2020 6:20 10.0 54 0.0 0 0.0 3.9 14.2 300
15/01/2020 6:30 9.9 54 0.0 0 0.0 4.2 15.0 305
15/01/2020 6:40 10.1 54 0.0 0 0.0 5.0 17.9 304
15/01/2020 6:50 10.2 53 0.0 0 0.0 5.3 19.2 302
15/01/2020 7:00 10.2 54 0.0 0 0.0 4.9 17.5 300
15/01/2020 7:10 10.1 54 0.0 0 0.0 4.2 15.1 302
15/01/2020 7:20 10.2 54 0.0 0 0.0 3.8 13.6 300
15/01/2020 7:30 10.1 55 0.0 0 0.0 3.6 13.0 302
15/01/2020 7:40 10.2 54 0.0 0 0.0 3.2 11.4 306
15/01/2020 7:50 10.2 54 0.0 0 0.0 2.6 9.3 309
15/01/2020 8:00 10.4 54 3.9 0 0.0 4.3 15.5 311
15/01/2020 8:10 10.6 54 18.3 0 0.0 4.8 17.1 308
15/01/2020 8:20 10.5 54 17.0 0 0.0 5.4 19.4 301
15/01/2020 8:30 10.8 53 16.9 0 0.0 5.7 20.7 305
15/01/2020 8:40 10.7 54 23.8 0 0.0 4.1 14.7 295
15/01/2020 8:50 10.7 54 32.6 0 0.0 4.5 16.1 305
15/01/2020 9:00 10.8 54 38.4 0 0.0 4.7 16.8 295
15/01/2020 9:10 10.9 54 49.9 0 0.0 4.2 15.3 294
15/01/2020 9:20 10.7 55 60.1 0 0.0 2.5 9.1 293
15/01/2020 9:30 10.6 56 66.5 0 0.0 3.4 12.1 308
15/01/2020 9:40 10.9 55 76.7 0 0.0 3.7 13.4 304
15/01/2020 9:50 11.1 55 101.3 0 0.0 3.9 13.9 291
15/01/2020 10:00 11.2 55 108.9 0 0.0 3.4 12.1 296
15/01/2020 10:10 11.3 56 114.3 0 0.0 4.2 15.2 312
15/01/2020 10:20 11.4 55 118.9 0 0.0 3.1 11.0 299
15/01/2020 10:30 11.6 55 136.8 0 0.0 3.4 12.2 271
15/01/2020 10:40 11.8 54 143.7 0 0.0 1.9 6.9 107
15/01/2020 10:50 11.8 55 149.4 0 0.0 2.0 7.3 16
15/01/2020 11:00 11.9 55 167.2 0 0.0 3.3 11.8 307
15/01/2020 11:10 12.2 53 225.6 264 0.0 2.3 8.2 233
15/01/2020 11:20 12.5 53 286.5 600 0.0 2.9 10.4 312
15/01/2020 11:30 12.5 53 276.1 600 0.0 3.6 13.0 320
15/01/2020 11:40 12.5 52 231.2 416 0.0 4.0 14.5 288
15/01/2020 11:50 12.4 52 176.0 0 0.0 2.9 10.3 291
15/01/2020 12:00 12.5 52 174.6 0 0.0 3.4 12.3 286
15/01/2020 12:10 12.5 53 154.9 0 0.0 2.8 10.0 301
15/01/2020 12:20 12.4 53 133.8 0 0.0 2.4 8.8 292
15/01/2020 12:30 12.5 53 108.9 0 0.0 3.9 13.9 291
15/01/2020 12:40 12.4 53 98.7 0 0.0 3.4 12.3 289
15/01/2020 12:50 12.5 52 68.0 0 0.0 2.9 10.6 287
15/01/2020 13:00 12.3 54 54.8 0 0.0 2.6 9.3 291
15/01/2020 13:10 12.3 54 63.1 0 0.0 3.0 10.9 293
15/01/2020 13:20 12.4 53 81.2 0 0.0 2.3 8.4 280
15/01/2020 13:30 12.3 55 115.5 0 0.0 2.9 10.5 300
15/01/2020 13:40 12.6 54 195.0 188 0.0 3.9 14.2 304
15/01/2020 13:50 12.9 53 269.2 600 0.0 3.7 13.4 300
15/01/2020 14:00 13.1 53 215.7 390 0.0 3.6 12.8 306
15/01/2020 14:10 13.1 53 219.8 422 0.0 1.8 6.6 296
15/01/2020 14:20 13.4 52 205.3 548 0.0 2.1 7.5 298
15/01/2020 14:30 13.4 52 213.9 600 0.0 1.4 5.0 338
15/01/2020 14:40 13.6 52 262.5 600 0.0 1.1 3.8 24
15/01/2020 14:50 13.6 51 173.4 278 0.0 1.2 4.3 23
15/01/2020 15:00 13.7 50 120.8 0 0.0 1.0 3.7 270
15/01/2020 15:10 13.5 51 99.5 0 0.0 2.1 7.6 310
15/01/2020 15:20 13.5 51 84.1 0 0.0 2.5 8.9 253
15/01/2020 15:30 13.3 52 76.4 0 0.0 1.5 5.3 338
15/01/2020 15:40 13.0 55 76.2 0 0.0 1.7 6.1 313
15/01/2020 15:50 13.0 55 78.3 0 0.0 1.6 5.8 329
15/01/2020 16:00 12.8 57 80.7 236 0.0 1.7 6.1 321
15/01/2020 16:10 12.9 57 70.2 362 0.0 1.4 4.9 322
15/01/2020 16:20 13.1 53 64.4 600 0.0 1.0 3.5 252
15/01/2020 16:30 13.0 55 45.9 600 0.0 1.6 5.7 294
15/01/2020 16:40 12.7 56 28.2 196 0.0 1.5 5.3 298
15/01/2020 16:50 12.2 58 9.0 0 0.0 2.1 7.5 307
15/01/2020 17:00 12.3 58 0.0 0 0.0 3.0 10.9 305
15/01/2020 17:10 12.2 58 0.0 0 0.0 3.0 10.8 322
15/01/2020 17:20 12.1 58 0.0 0 0.0 3.0 10.6 320
15/01/2020 17:30 12.3 57 0.0 0 0.0 2.7 9.8 312
15/01/2020 17:40 11.1 62 0.0 0 0.0 1.3 4.6 287
15/01/2020 17:50 10.4 65 0.0 0 0.0 0.7 2.4 317
15/01/2020 18:00 9.0 71 0.0 0 0.0 0.3 1.0 163
15/01/2020 18:10 8.5 73 0.0 0 0.0 0.9 3.3 278
15/01/2020 18:20 7.9 75 0.0 0 0.0 0.4 1.4 210
15/01/2020 18:30 7.3 79 0.0 0 0.0 1.1 4.0 133
15/01/2020 18:40 7.3 80 0.0 0 0.0 1.9 6.7 131
15/01/2020 18:50 7.6 78 0.0 0 0.0 1.2 4.2 141
15/01/2020 19:00 6.5 81 0.0 0 0.0 0.0 0.1 300
15/01/2020 19:10 6.1 84 0.0 0 0.0 0.2 0.9 187
15/01/2020 19:20 5.6 87 0.0 0 0.0 0.2 0.5 200
15/01/2020 19:30 5.5 86 0.0 0 0.0 0.7 2.3 149
15/01/2020 19:40 5.1 88 0.0 0 0.0 0.3 0.9 118
15/01/2020 19:50 4.8 90 0.0 0 0.0 0.0 0.0 0
15/01/2020 20:00 4.5 91 0.0 0 0.0 0.1 0.5 203
15/01/2020 20:10 4.2 91 0.0 0 0.0 1.4 5.0 133
15/01/2020 20:20 5.3 88 0.0 0 0.0 2.2 8.0 122
15/01/2020 20:30 5.2 88 0.0 0 0.0 1.6 5.7 133
15/01/2020 20:40 5.5 86 0.0 0 0.0 0.9 3.3 122
15/01/2020 20:50 4.8 88 0.0 0 0.0 0.9 3.3 131
15/01/2020 21:00 4.9 87 0.0 0 0.0 0.3 1.2 329
15/01/2020 21:10 4.2 90 0.0 0 0.0 0.7 2.4 140
15/01/2020 21:20 3.6 91 0.0 0 0.0 0.2 0.8 18
15/01/2020 21:30 3.5 94 0.0 0 0.0 0.2 0.5 240
15/01/2020 21:40 3.3 93 0.0 0 0.0 0.1 0.4 149
15/01/2020 21:50 3.3 95 0.0 0 0.0 0.6 2.0 121
15/01/2020 22:00 3.2 94 0.0 0 0.0 0.6 2.2 179
15/01/2020 22:10 3.2 95 0.0 0 0.0 0.5 1.7 53
15/01/2020 22:20 3.3 94 0.0 0 0.0 0.6 2.0 153
15/01/2020 22:30 3.0 95 0.0 0 0.0 0.9 3.1 151
15/01/2020 22:40 3.0 94 0.0 0 0.0 1.0 3.7 129
15/01/2020 22:50 2.6 95 0.0 0 0.0 1.1 3.9 138
15/01/2020 23:00 2.8 96 0.0 0 0.0 1.8 6.5 122
15/01/2020 23:10 3.4 94 0.0 0 0.0 1.2 4.3 131
15/01/2020 23:20 3.2 94 0.0 0 0.0 1.4 5.1 127
15/01/2020 23:30 3.1 94 0.0 0 0.0 0.4 1.3 156
15/01/2020 23:40 2.9 94 0.0 0 0.0 0.4 1.5 192
15/01/2020 23:50 2.8 95 0.0 0 0.0 0.8 2.8 137
Anterior Página 1 de 1 Siguiente

NOTA: Tipo de datos según el color:
   - Valores diarios o 10 minutos correctos
   - Valores diarios calculados a partir de un número de datos 10 minutos menor que 144 y mayor que 120, o de un número de datos semihorarios menor que 48 y mayor que 40 (caso de las estaciones de Riegos de Navarra y del MARM)
   - Valores diez minutos estimados


Contacto        Enlaces        Aviso legal